Архив погоды в Казанской

Метеограмма Казанская
Пятница, 24 Мая
Время местн. Темп Ветер Видим Явления Облачность нижн/средн/верх Атм. давл. Влжн Точка росы ВНГО R Сост. почвы Tg s
Напр Скр Прв ур.ст ур.м изм
09:00 +21.1° С-З 2 - 20 км - ясно 750 756 +0.4 65% +14.3° более 2.5 км - - - -
06:00 +14.9° З,С-З 1 - 20 км - ясно 750 756 +0.3 88% +12.9° более 2.5 км - Влажная (без луж) - -
03:00 +13.7° З,С-З 2 - 20 км - ясно 749 756 +0.2 91% +12.2° более 2.5 км - - - -
00:00 +15.4° З,С-З 1 - 20 км - ясно 749 756 +0.2 83% +12.6° более 2.5 км - - - -
Четверг, 23 Мая
Время местн. Темп Ветер Видим Явления Облачность нижн/средн/верх Атм. давл. Влжн Точка росы ВНГО R Сост. почвы Tg s
Напр Скр Прв ур.ст ур.м изм
21:00 +16.7° З 2 - 20 км - переменная облачность 749 755 +0.1 77% +12.7° 1 км - - - -
18:00 +19.1° Ю-З 1 - 20 км - преимущественно облачно 749 755 -0.5 61% +11.5° 1 км - - - -
15:00 +20° З,С-З 3 - 20 км небо без изменений {ливневые осадки} облачно с прояснениями 750 756 -0.7 57% +11.2° 1 км - - - -
12:00 +18.6° З 4 - 20 км облака рассеиваются {ливневые осадки} облачно с прояснениями 750 756 -0.3 65% +12° 1 км - - - -
09:00 +13.8° З 3 - 10 км слабый ливневый дождь облачно 750 757 +0.3 95% +13° 600 м - - - -
06:00 +12.4° З 1 - 20 км небо без изменений {ливневые осадки} облачно 750 757 -0.5 97% +12° 1 км - Влажная (без луж) - -
03:00 +12.8° В,Ю-В 1 - 4 км слабый ливневый дождь облачно 751 757 -1.1 96% +12.2° 1 км - - - -
00:00 +14.9° В,Ю-В 2 - 20 км - облачно 752 758 -1.3 60% +7.3° - - - - -
Среда, 22 Мая
Время местн. Темп Ветер Видим Явления Облачность нижн/средн/верх Атм. давл. Влжн Точка росы ВНГО R Сост. почвы Tg s
Напр Скр Прв ур.ст ур.м изм
21:00 +14.5° штиль 0 - 20 км - облачно с прояснениями 753 759 -0.9 64% +7.8° - - - - -
18:00 +23.2° Ю 4 - 20 км - облачно с прояснениями 754 760 -0.6 28% +3.5° - - - - -
15:00 +23.9° Ю 4 - 20 км - облачно 755 761 -1.2 26% +3.3° - - - - -
12:00 +22.9° Ю,Ю-В 3 - 20 км - облачно 756 762 -1 31% +4.7° - - - - -
09:00 +18.8° Ю 3 - 20 км - облачно 757 763 -0.5 47% +7.3° 1.5 км - - - -
06:00 +10.9° Ю-В 2 - 20 км - облачно 757 764 -0.5 73% +6.3° - - Сухая (без трещин) - -
03:00 +9.5° В,Ю-В 1 - 20 км - переменная облачность 758 764 -0.6 83% +6.7° более 2.5 км - - - -
00:00 +12.1° Ю-В 1 - 20 км - переменная облачность 758 765 -0.2 72% +7.2° более 2.5 км - - - -
Вторник, 21 Мая
Время местн. Темп Ветер Видим Явления Облачность нижн/средн/верх Атм. давл. Влжн Точка росы ВНГО R Сост. почвы Tg s
Напр Скр Прв ур.ст ур.м изм
21:00 +14.6° штиль 0 - 20 км - переменная облачность 758 765 -0.1 83% +11.8° более 2.5 км - - - -
18:00 +24.1° Ю-В 1 - 20 км - облачно 759 765 -1 22% +1° более 2.5 км - - - -
15:00 +24° Ю 2 - 20 км - ясно 760 766 -1 21% +0.4° более 2.5 км - - - -
12:00 +23.6° В 2 - 20 км - переменная облачность 761 767 -0.5 21% -0.3° более 2.5 км - - - -
09:00 +18.4° Ю 1 - 20 км - ясно 761 767 +0.4 40% +4.6° более 2.5 км - - - -
06:00 +8° штиль 0 - 20 км - ясно 761 767 +0.5 97% +7.6° более 2.5 км - Сухая (без трещин) - -